Druid Hills, Georgia
Current Conditions -  °F | °C
As of 10:53 PM on Thursday 18 Dec 2014 (Local Time) from KPDK Reporting Station
Clear Clear  
Wind Chill: 38°   Ceiling: Unl
Heat Index: 42°   Visibility: 10mi
Dew Point: 33°   Wind: 6mph
Humidity: 70%   Direction: 300°WNW
Pressure: 30.15"   Gusts: NA
Location:  33.7788°N, 84.3361°W
Report Text: KPDK 190353Z AUTO 30005KT 10SM CLR 06/01 A3015 RMK AO2 SLP218 T00560006
Loading
Personal Weather Stations






























Interactive Weather Map New forecast layout! Learn more

10-Day Weather Forecast

Advertisements
Track Severe Weather on mobile